createdAt,value
2023-02-19T00:00:41.558Z,6.10
2023-02-19T00:06:06.858Z,4.80
2023-02-19T00:11:15.856Z,5.23
2023-02-19T00:16:31.764Z,8.70
2023-02-19T00:21:35.302Z,7.97
2023-02-19T00:26:41.209Z,7.07
2023-02-19T00:31:48.776Z,7.00
2023-02-19T00:36:52.110Z,6.80
2023-02-19T00:41:57.957Z,8.27
2023-02-19T00:47:01.268Z,10.43
2023-02-19T00:52:04.668Z,6.77
2023-02-19T00:57:07.769Z,10.80
2023-02-19T01:02:11.108Z,11.50
2023-02-19T01:07:14.766Z,6.57
2023-02-19T01:12:20.999Z,8.97
2023-02-19T01:17:24.501Z,7.40
2023-02-19T01:22:27.703Z,7.13
2023-02-19T01:27:30.984Z,6.70
2023-02-19T01:32:34.273Z,5.03
2023-02-19T01:37:38.472Z,11.07
2023-02-19T01:42:44.673Z,7.50
2023-02-19T01:47:54.576Z,6.63
2023-02-19T01:52:59.016Z,8.90
2023-02-19T01:58:03.755Z,9.73
2023-02-19T02:03:07.362Z,8.07
2023-02-19T02:08:29.615Z,10.67
2023-02-19T02:13:38.199Z,6.07
2023-02-19T02:18:53.759Z,10.07
2023-02-19T02:24:31.087Z,6.87
2023-02-19T02:29:53.219Z,7.87
2023-02-19T02:35:06.099Z,6.50
2023-02-19T02:40:12.575Z,10.30
2023-02-19T02:45:37.731Z,7.30
2023-02-19T02:51:14.307Z,4.83
2023-02-19T02:56:19.265Z,7.70
2023-02-19T03:01:51.361Z,7.87
2023-02-19T03:06:56.206Z,11.33
2023-02-19T03:12:22.968Z,6.80
2023-02-19T03:18:11.776Z,5.37
2023-02-19T03:23:17.564Z,5.80
2023-02-19T03:28:44.345Z,5.73
2023-02-19T03:33:52.691Z,4.53
2023-02-19T03:39:10.134Z,5.47
2023-02-19T03:44:22.225Z,7.57
2023-02-19T03:50:03.736Z,4.70
2023-02-19T03:55:19.726Z,6.87
2023-02-19T04:00:38.922Z,6.07
2023-02-19T04:05:47.538Z,7.67
2023-02-19T04:10:52.455Z,9.73
2023-02-19T04:16:01.376Z,7.03
2023-02-19T04:21:06.511Z,8.03
2023-02-19T04:26:11.340Z,6.67
2023-02-19T04:31:15.060Z,8.97
2023-02-19T04:36:18.417Z,8.30
2023-02-19T04:41:21.683Z,7.00
2023-02-19T04:46:25.444Z,11.30
2023-02-19T04:51:28.713Z,10.40
2023-02-19T04:56:32.464Z,7.10
2023-02-19T05:01:35.880Z,8.17
2023-02-19T05:06:39.105Z,6.20
2023-02-19T05:11:45.523Z,5.97
2023-02-19T05:16:51.782Z,7.57
2023-02-19T05:21:55.041Z,9.17
2023-02-19T05:26:58.678Z,8.70
2023-02-19T05:32:02.077Z,11.50
2023-02-19T05:37:05.483Z,5.63
2023-02-19T05:42:08.785Z,8.87
2023-02-19T05:47:12.313Z,11.30
2023-02-19T05:52:15.571Z,7.73
2023-02-19T05:57:20.833Z,5.37
2023-02-19T06:02:23.988Z,6.73
2023-02-19T06:07:27.460Z,8.27
2023-02-19T06:12:30.686Z,5.33
2023-02-19T06:17:34.805Z,7.83
2023-02-19T06:22:37.962Z,11.87
2023-02-19T06:27:41.250Z,6.73
2023-02-19T06:32:44.612Z,8.87
2023-02-19T06:37:48.938Z,8.03
2023-02-19T06:42:52.239Z,8.63
2023-02-19T06:47:55.602Z,10.90
2023-02-19T06:52:59.389Z,9.10
2023-02-19T06:58:02.801Z,9.37
2023-02-19T07:03:05.991Z,10.13
2023-02-19T07:08:10.127Z,8.00
2023-02-19T07:13:13.702Z,9.13
2023-02-19T07:18:17.083Z,6.43
2023-02-19T07:23:20.621Z,12.67
2023-02-19T07:28:23.906Z,10.20
2023-02-19T07:33:29.912Z,18.43
2023-02-19T07:38:33.275Z,17.33
2023-02-19T07:43:38.093Z,11.20
2023-02-19T07:48:43.325Z,14.00
2023-02-19T07:53:51.567Z,15.00
2023-02-19T07:58:55.268Z,13.90
2023-02-19T08:03:58.795Z,13.93
2023-02-19T08:09:01.980Z,10.83
2023-02-19T08:14:05.833Z,9.60
2023-02-19T08:19:09.009Z,10.63
2023-02-19T08:24:12.279Z,8.33
2023-02-19T08:29:15.796Z,7.93
2023-02-19T08:34:19.097Z,9.20
2023-02-19T08:39:22.407Z,6.43
2023-02-19T08:44:25.966Z,8.70
2023-02-19T08:49:33.526Z,10.47
2023-02-19T08:54:37.354Z,4.70
2023-02-19T08:59:40.592Z,8.07
2023-02-19T09:04:44.677Z,3.70
2023-02-19T09:09:48.022Z,5.60
2023-02-19T09:14:55.861Z,10.33
2023-02-19T09:19:59.984Z,5.60
2023-02-19T09:25:06.535Z,8.00
2023-02-19T09:30:10.369Z,3.70
2023-02-19T09:35:14.255Z,4.87
2023-02-19T09:40:24.427Z,8.07
2023-02-19T09:45:28.673Z,6.93
2023-02-19T09:50:38.091Z,6.23
2023-02-19T09:55:44.097Z,4.17
2023-02-19T10:00:50.305Z,2.73
2023-02-19T10:05:54.462Z,9.20
2023-02-19T10:11:08.144Z,5.33
2023-02-19T10:16:25.241Z,3.23
2023-02-19T10:21:32.675Z,5.87
2023-02-19T10:26:37.384Z,3.03
2023-02-19T10:31:41.589Z,3.30
2023-02-19T10:36:47.931Z,3.47
2023-02-19T10:41:55.044Z,3.07
2023-02-19T10:47:01.595Z,4.17
2023-02-19T10:52:34.744Z,3.13
2023-02-19T10:57:39.186Z,3.13
2023-02-19T11:02:45.853Z,4.63
2023-02-19T11:07:54.491Z,5.27
2023-02-19T11:13:09.844Z,3.90
2023-02-19T11:18:14.358Z,3.40
2023-02-19T11:23:24.652Z,2.80
2023-02-19T11:28:40.045Z,3.50
2023-02-19T11:33:57.637Z,1.00
2023-02-19T11:39:26.340Z,2.70
2023-02-19T11:44:49.098Z,7.30
2023-02-19T11:50:09.518Z,8.57
2023-02-19T11:55:32.437Z,1.90
2023-02-19T12:00:50.645Z,1.57
2023-02-19T12:06:28.635Z,1.83
2023-02-19T12:11:44.340Z,2.17
2023-02-19T12:16:57.275Z,4.10
2023-02-19T12:22:21.049Z,5.13
2023-02-19T12:27:53.612Z,3.03
2023-02-19T12:32:57.823Z,1.73
2023-02-19T12:38:16.460Z,1.13
2023-02-19T12:43:26.758Z,1.60
2023-02-19T12:48:40.342Z,2.20
2023-02-19T12:54:30.547Z,1.93
2023-02-19T12:59:56.558Z,1.67
2023-02-19T13:05:06.450Z,0.67
2023-02-19T13:10:11.941Z,3.70
2023-02-19T13:15:18.001Z,2.60
2023-02-19T13:20:35.672Z,5.10
2023-02-19T13:26:04.260Z,0.80
2023-02-19T13:31:44.835Z,1.00
2023-02-19T13:36:49.841Z,3.10
2023-02-19T13:41:57.779Z,0.70
2023-02-19T13:47:07.388Z,0.37
2023-02-19T13:52:36.570Z,3.13
2023-02-19T13:57:42.248Z,1.17
2023-02-19T14:02:46.599Z,0.87
2023-02-19T14:07:55.260Z,1.90
2023-02-19T14:13:02.689Z,2.53
2023-02-19T14:18:44.168Z,1.63
2023-02-19T14:23:56.846Z,0.83
2023-02-19T14:29:03.543Z,2.53
2023-02-19T14:34:25.072Z,2.20
2023-02-19T14:39:42.613Z,0.83
2023-02-19T14:44:58.784Z,2.93
2023-02-19T14:50:33.378Z,2.90
2023-02-19T14:55:43.626Z,2.03
2023-02-19T15:00:48.997Z,2.17
2023-02-19T15:06:14.022Z,2.37
2023-02-19T15:11:24.792Z,2.27
2023-02-19T15:16:32.361Z,2.00
2023-02-19T15:21:45.347Z,1.10
2023-02-19T15:26:52.833Z,0.93
2023-02-19T15:32:01.108Z,3.40
2023-02-19T15:37:14.139Z,2.73
2023-02-19T15:42:32.661Z,1.47
2023-02-19T15:47:42.569Z,4.30
2023-02-19T15:52:50.958Z,3.13
2023-02-19T15:58:04.859Z,1.80
2023-02-19T16:03:20.082Z,2.53
2023-02-19T16:08:38.438Z,3.07
2023-02-19T16:13:44.290Z,3.53
2023-02-19T16:18:50.979Z,2.27
2023-02-19T16:24:17.541Z,1.57
2023-02-19T16:29:28.579Z,1.83
2023-02-19T16:34:52.368Z,4.57
2023-02-19T16:40:30.152Z,3.90
2023-02-19T16:45:35.086Z,6.70
2023-02-19T16:50:43.996Z,2.53
2023-02-19T16:55:50.348Z,2.67
2023-02-19T17:00:56.738Z,2.83
2023-02-19T17:06:02.244Z,2.87
2023-02-19T17:11:14.122Z,3.60
2023-02-19T17:16:22.440Z,1.83
2023-02-19T17:21:30.256Z,4.40
2023-02-19T17:26:38.984Z,1.70
2023-02-19T17:31:44.258Z,1.83
2023-02-19T17:36:50.248Z,3.60
2023-02-19T17:41:56.636Z,2.50
2023-02-19T17:47:04.045Z,5.33
2023-02-19T17:52:09.161Z,2.83
2023-02-19T17:57:16.365Z,4.23
2023-02-19T18:02:21.828Z,5.87
2023-02-19T18:07:27.467Z,2.47
2023-02-19T18:12:36.604Z,3.90
2023-02-19T18:17:41.733Z,5.67
2023-02-19T18:22:48.165Z,3.47
2023-02-19T18:27:56.298Z,3.47
2023-02-19T18:33:18.097Z,5.13
2023-02-19T18:38:25.447Z,4.07
2023-02-19T18:43:29.829Z,9.33
2023-02-19T18:48:36.001Z,8.43
2023-02-19T18:53:45.437Z,5.40
2023-02-19T18:58:52.323Z,4.83
2023-02-19T19:04:01.425Z,8.37
2023-02-19T19:09:09.097Z,4.43
2023-02-19T19:14:15.631Z,6.67
2023-02-19T19:19:20.557Z,12.30
2023-02-19T19:24:26.361Z,7.97
2023-02-19T19:29:34.331Z,4.40
2023-02-19T19:34:40.713Z,10.93
2023-02-19T19:39:53.973Z,6.50
2023-02-19T19:44:59.231Z,9.87
2023-02-19T19:50:05.183Z,4.90
2023-02-19T19:55:12.555Z,5.93
2023-02-19T20:00:24.880Z,6.63
2023-02-19T20:05:32.386Z,3.13
2023-02-19T20:10:40.038Z,4.23
2023-02-19T20:15:46.939Z,5.10
2023-02-19T20:20:52.699Z,6.53
2023-02-19T20:26:06.287Z,5.97
2023-02-19T20:31:13.358Z,8.00
2023-02-19T20:36:21.147Z,5.03
2023-02-19T20:41:27.481Z,3.37
2023-02-19T20:46:36.197Z,5.33
2023-02-19T20:51:46.715Z,3.40
2023-02-19T20:56:54.696Z,3.57
2023-02-19T21:02:00.039Z,5.33
2023-02-19T21:07:07.152Z,4.20
2023-02-19T21:12:14.869Z,2.93
2023-02-19T21:17:23.387Z,5.10
2023-02-19T21:22:31.519Z,5.87
2023-02-19T21:27:35.438Z,8.87
2023-02-19T21:32:44.294Z,3.70
2023-02-19T21:37:52.024Z,3.47
2023-02-19T21:42:55.989Z,4.27
2023-02-19T21:47:59.430Z,3.27
2023-02-19T21:53:06.096Z,2.60
2023-02-19T21:58:13.078Z,6.30
2023-02-19T22:03:17.444Z,2.80
2023-02-19T22:08:21.870Z,6.90
2023-02-19T22:13:25.804Z,2.50
2023-02-19T22:18:29.611Z,3.23
2023-02-19T22:23:32.923Z,3.60
2023-02-19T22:28:36.413Z,1.77
2023-02-19T22:33:40.242Z,4.60
2023-02-19T22:38:43.534Z,3.53
2023-02-19T22:43:47.594Z,5.83
2023-02-19T22:48:51.348Z,3.37
2023-02-19T22:53:56.298Z,3.63
2023-02-19T22:58:59.861Z,4.77
2023-02-19T23:04:03.187Z,6.33
2023-02-19T23:09:11.015Z,4.77
2023-02-19T23:14:17.793Z,2.43
2023-02-19T23:19:21.320Z,3.63
2023-02-19T23:24:24.879Z,3.20
2023-02-19T23:29:30.191Z,2.87
2023-02-19T23:34:33.448Z,4.37
2023-02-19T23:39:37.084Z,4.90
2023-02-19T23:44:40.377Z,3.83
2023-02-19T23:49:43.814Z,3.33
2023-02-19T23:54:47.522Z,5.53
2023-02-19T23:59:51.083Z,5.97
